sensor_id;sensor_type;location;lat;lon;timestamp;P1;durP1;ratioP1;P2;durP2;ratioP2
17967;SDS011;9109;48.050;11.696;2023-04-25T03:48:11;7.73;;;2.00;;
17967;SDS011;9109;48.050;11.696;2023-04-25T03:51:13;5.67;;;1.80;;
17967;SDS011;9109;48.050;11.696;2023-04-25T03:54:15;7.00;;;1.60;;
17967;SDS011;9109;48.050;11.696;2023-04-25T03:57:17;4.70;;;1.90;;
17967;SDS011;9109;48.050;11.696;2023-04-25T04:00:19;1.97;;;1.57;;
17967;SDS011;9109;48.050;11.696;2023-04-25T04:03:22;5.20;;;1.70;;
17967;SDS011;9109;48.050;11.696;2023-04-25T04:06:25;3.00;;;2.10;;
17967;SDS011;9109;48.050;11.696;2023-04-25T04:09:26;7.13;;;2.40;;
17967;SDS011;9109;48.050;11.696;2023-04-25T04:12:28;4.73;;;1.77;;
17967;SDS011;9109;48.050;11.696;2023-04-25T04:15:30;16.37;;;2.73;;
17967;SDS011;9109;48.050;11.696;2023-04-25T04:18:34;3.77;;;2.07;;
17967;SDS011;9109;48.050;11.696;2023-04-25T04:21:36;6.10;;;1.83;;
17967;SDS011;9109;48.050;11.696;2023-04-25T04:24:38;2.60;;;1.80;;
17967;SDS011;9109;48.050;11.696;2023-04-25T04:27:42;4.80;;;2.03;;
17967;SDS011;9109;48.050;11.696;2023-04-25T04:30:44;8.07;;;2.20;;
17967;SDS011;9109;48.050;11.696;2023-04-25T04:33:48;2.60;;;1.77;;
17967;SDS011;9109;48.050;11.696;2023-04-25T04:36:50;3.90;;;2.10;;
17967;SDS011;9109;48.050;11.696;2023-04-25T04:39:52;10.77;;;2.13;;
17967;SDS011;9109;48.050;11.696;2023-04-25T04:42:54;8.30;;;1.97;;
17967;SDS011;9109;48.050;11.696;2023-04-25T04:45:57;5.80;;;2.00;;
17967;SDS011;9109;48.050;11.696;2023-04-25T04:49:01;5.17;;;2.03;;
17967;SDS011;9109;48.050;11.696;2023-04-25T04:52:06;4.00;;;2.07;;
17967;SDS011;9109;48.050;11.696;2023-04-25T04:55:08;2.33;;;1.83;;
17967;SDS011;9109;48.050;11.696;2023-04-25T04:58:10;9.60;;;1.93;;
17967;SDS011;9109;48.050;11.696;2023-04-25T05:01:12;5.77;;;2.00;;
17967;SDS011;9109;48.050;11.696;2023-04-25T05:04:17;4.47;;;1.90;;
17967;SDS011;9109;48.050;11.696;2023-04-25T05:07:19;4.50;;;1.90;;
17967;SDS011;9109;48.050;11.696;2023-04-25T05:10:26;3.60;;;2.27;;
17967;SDS011;9109;48.050;11.696;2023-04-25T05:13:31;7.40;;;2.33;;
17967;SDS011;9109;48.050;11.696;2023-04-25T05:16:47;7.53;;;2.13;;
17967;SDS011;9109;48.050;11.696;2023-04-25T05:19:50;4.70;;;2.30;;
17967;SDS011;9109;48.050;11.696;2023-04-25T05:23:02;7.23;;;2.10;;
17967;SDS011;9109;48.050;11.696;2023-04-25T05:26:15;5.23;;;2.10;;
17967;SDS011;9109;48.050;11.696;2023-04-25T05:29:17;7.50;;;2.30;;
17967;SDS011;9109;48.050;11.696;2023-04-25T05:32:19;5.53;;;2.73;;
17967;SDS011;9109;48.050;11.696;2023-04-25T05:35:22;5.83;;;1.93;;
17967;SDS011;9109;48.050;11.696;2023-04-25T05:38:24;3.77;;;2.37;;
17967;SDS011;9109;48.050;11.696;2023-04-25T05:41:26;4.57;;;2.00;;
17967;SDS011;9109;48.050;11.696;2023-04-25T05:44:28;4.53;;;2.20;;
17967;SDS011;9109;48.050;11.696;2023-04-25T05:47:31;4.73;;;2.13;;
17967;SDS011;9109;48.050;11.696;2023-04-25T05:50:34;7.67;;;2.23;;
17967;SDS011;9109;48.050;11.696;2023-04-25T05:53:36;6.60;;;2.03;;
17967;SDS011;9109;48.050;11.696;2023-04-25T05:56:38;2.60;;;1.80;;
17967;SDS011;9109;48.050;11.696;2023-04-25T05:59:40;3.77;;;2.20;;
17967;SDS011;9109;48.050;11.696;2023-04-25T06:02:43;4.90;;;2.30;;
17967;SDS011;9109;48.050;11.696;2023-04-25T06:05:47;3.40;;;1.70;;
17967;SDS011;9109;48.050;11.696;2023-04-25T06:08:49;4.97;;;2.10;;
17967;SDS011;9109;48.050;11.696;2023-04-25T06:11:51;6.90;;;2.60;;
17967;SDS011;9109;48.050;11.696;2023-04-25T06:14:52;3.50;;;2.03;;
17967;SDS011;9109;48.050;11.696;2023-04-25T06:17:54;7.67;;;2.47;;
17967;SDS011;9109;48.050;11.696;2023-04-25T06:20:58;4.03;;;2.00;;
17967;SDS011;9109;48.050;11.696;2023-04-25T06:23:59;9.97;;;2.07;;
17967;SDS011;9109;48.050;11.696;2023-04-25T06:27:01;9.53;;;2.20;;
17967;SDS011;9109;48.050;11.696;2023-04-25T06:30:04;7.20;;;2.20;;
17967;SDS011;9109;48.050;11.696;2023-04-25T06:33:07;3.30;;;2.30;;
17967;SDS011;9109;48.050;11.696;2023-04-25T06:36:11;5.13;;;2.23;;
17967;SDS011;9109;48.050;11.696;2023-04-25T06:39:23;7.20;;;2.40;;
17967;SDS011;9109;48.050;11.696;2023-04-25T06:42:25;6.57;;;2.97;;
17967;SDS011;9109;48.050;11.696;2023-04-25T06:45:29;5.93;;;2.30;;
17967;SDS011;9109;48.050;11.696;2023-04-25T06:48:34;3.40;;;2.30;;
17967;SDS011;9109;48.050;11.696;2023-04-25T06:51:43;5.67;;;2.50;;
17967;SDS011;9109;48.050;11.696;2023-04-25T06:54:49;6.47;;;2.50;;
17967;SDS011;9109;48.050;11.696;2023-04-25T06:57:51;7.27;;;2.57;;
17967;SDS011;9109;48.050;11.696;2023-04-25T07:00:53;8.80;;;2.77;;
17967;SDS011;9109;48.050;11.696;2023-04-25T07:03:55;10.30;;;2.23;;
17967;SDS011;9109;48.050;11.696;2023-04-25T07:07:01;6.87;;;2.70;;
17967;SDS011;9109;48.050;11.696;2023-04-25T07:10:04;7.53;;;2.30;;
17967;SDS011;9109;48.050;11.696;2023-04-25T07:13:06;5.87;;;2.50;;
17967;SDS011;9109;48.050;11.696;2023-04-25T07:16:09;7.03;;;2.37;;
17967;SDS011;9109;48.050;11.696;2023-04-25T07:19:11;5.20;;;2.43;;
17967;SDS011;9109;48.050;11.696;2023-04-25T07:22:17;8.20;;;2.23;;
17967;SDS011;9109;48.050;11.696;2023-04-25T07:25:19;5.17;;;2.10;;
17967;SDS011;9109;48.050;11.696;2023-04-25T07:28:21;4.77;;;3.00;;
17967;SDS011;9109;48.050;11.696;2023-04-25T07:31:23;3.77;;;2.20;;
17967;SDS011;9109;48.050;11.696;2023-04-25T07:34:25;5.83;;;2.30;;
17967;SDS011;9109;48.050;11.696;2023-04-25T07:37:28;7.60;;;2.20;;
17967;SDS011;9109;48.050;11.696;2023-04-25T07:40:30;4.03;;;2.30;;
17967;SDS011;9109;48.050;11.696;2023-04-25T07:43:32;3.50;;;2.37;;
17967;SDS011;9109;48.050;11.696;2023-04-25T07:46:34;4.37;;;2.40;;
17967;SDS011;9109;48.050;11.696;2023-04-25T07:49:36;6.47;;;2.50;;
17967;SDS011;9109;48.050;11.696;2023-04-25T07:52:43;11.93;;;3.10;;
17967;SDS011;9109;48.050;11.696;2023-04-25T07:55:47;11.70;;;2.57;;
17967;SDS011;9109;48.050;11.696;2023-04-25T07:58:49;8.33;;;2.33;;
17967;SDS011;9109;48.050;11.696;2023-04-25T08:01:52;8.67;;;2.20;;
17967;SDS011;9109;48.050;11.696;2023-04-25T08:04:54;6.07;;;2.27;;
17967;SDS011;9109;48.050;11.696;2023-04-25T08:08:01;5.63;;;2.33;;
17967;SDS011;9109;48.050;11.696;2023-04-25T08:11:04;4.53;;;2.13;;
17967;SDS011;9109;48.050;11.696;2023-04-25T08:14:09;4.17;;;2.20;;
17967;SDS011;9109;48.050;11.696;2023-04-25T08:17:15;6.60;;;2.07;;
17967;SDS011;9109;48.050;11.696;2023-04-25T08:20:30;9.63;;;2.13;;
17967;SDS011;9109;48.050;11.696;2023-04-25T08:23:36;4.87;;;2.10;;
17967;SDS011;9109;48.050;11.696;2023-04-25T08:26:54;3.77;;;1.80;;
17967;SDS011;9109;48.050;11.696;2023-04-25T08:29:58;6.13;;;1.73;;
17967;SDS011;9109;48.050;11.696;2023-04-25T08:33:00;4.47;;;1.90;;
17967;SDS011;9109;48.050;11.696;2023-04-25T08:36:12;5.73;;;2.00;;
17967;SDS011;9109;48.050;11.696;2023-04-25T08:39:20;9.00;;;2.10;;
17967;SDS011;9109;48.050;11.696;2023-04-25T08:42:31;3.17;;;1.60;;
17967;SDS011;9109;48.050;11.696;2023-04-25T08:45:48;4.40;;;1.83;;
17967;SDS011;9109;48.050;11.696;2023-04-25T08:48:58;8.50;;;2.73;;
17967;SDS011;9109;48.050;11.696;2023-04-25T08:52:09;5.07;;;1.90;;
17967;SDS011;9109;48.050;11.696;2023-04-25T08:55:13;7.53;;;1.93;;
17967;SDS011;9109;48.050;11.696;2023-04-25T08:58:16;3.67;;;1.67;;
17967;SDS011;9109;48.050;11.696;2023-04-25T09:01:20;5.67;;;1.77;;
17967;SDS011;9109;48.050;11.696;2023-04-25T09:04:22;2.63;;;1.97;;
17967;SDS011;9109;48.050;11.696;2023-04-25T09:07:36;5.30;;;2.00;;
17967;SDS011;9109;48.050;11.696;2023-04-25T09:10:47;6.03;;;2.00;;
17967;SDS011;9109;48.050;11.696;2023-04-25T09:14:12;4.33;;;1.97;;
17967;SDS011;9109;48.050;11.696;2023-04-25T09:17:24;6.03;;;1.80;;
17967;SDS011;9109;48.050;11.696;2023-04-25T09:20:28;6.17;;;1.90;;
17967;SDS011;9109;48.050;11.696;2023-04-25T09:23:45;6.40;;;1.70;;
17967;SDS011;9109;48.050;11.696;2023-04-25T09:27:04;5.30;;;2.07;;
17967;SDS011;9109;48.050;11.696;2023-04-25T09:30:13;12.37;;;2.33;;
17967;SDS011;9109;48.050;11.696;2023-04-25T09:33:20;6.23;;;1.90;;
17967;SDS011;9109;48.050;11.696;2023-04-25T09:36:33;3.73;;;2.10;;
17967;SDS011;9109;48.050;11.696;2023-04-25T09:39:46;7.07;;;2.00;;
17967;SDS011;9109;48.050;11.696;2023-04-25T09:42:49;4.53;;;2.23;;
17967;SDS011;9109;48.050;11.696;2023-04-25T09:45:56;4.07;;;1.80;;
17967;SDS011;9109;48.050;11.696;2023-04-25T09:49:05;5.70;;;2.30;;
17967;SDS011;9109;48.050;11.696;2023-04-25T09:52:13;4.27;;;1.60;;
17967;SDS011;9109;48.050;11.696;2023-04-25T09:55:18;10.27;;;1.60;;
17967;SDS011;9109;48.050;11.696;2023-04-25T09:58:33;7.13;;;2.00;;
17967;SDS011;9109;48.050;11.696;2023-04-25T10:01:48;3.73;;;1.60;;
17967;SDS011;9109;48.050;11.696;2023-04-25T10:05:05;2.90;;;1.70;;
17967;SDS011;9109;48.050;11.696;2023-04-25T10:08:13;6.40;;;1.80;;
17967;SDS011;9109;48.050;11.696;2023-04-25T10:11:27;10.87;;;1.97;;
17967;SDS011;9109;48.050;11.696;2023-04-25T10:14:31;5.97;;;1.70;;
17967;SDS011;9109;48.050;11.696;2023-04-25T10:17:33;9.53;;;1.43;;
17967;SDS011;9109;48.050;11.696;2023-04-25T10:20:36;5.70;;;1.80;;
17967;SDS011;9109;48.050;11.696;2023-04-25T10:23:39;2.97;;;1.50;;
17967;SDS011;9109;48.050;11.696;2023-04-25T10:26:42;3.17;;;1.43;;
17967;SDS011;9109;48.050;11.696;2023-04-25T10:29:45;4.10;;;1.70;;
17967;SDS011;9109;48.050;11.696;2023-04-25T10:33:02;2.37;;;1.37;;
17967;SDS011;9109;48.050;11.696;2023-04-25T10:36:19;4.50;;;1.47;;
17967;SDS011;9109;48.050;11.696;2023-04-25T10:39:30;4.57;;;1.60;;
17967;SDS011;9109;48.050;11.696;2023-04-25T10:42:44;2.93;;;1.33;;
17967;SDS011;9109;48.050;11.696;2023-04-25T10:45:54;2.72;;;1.50;;
17967;SDS011;9109;48.050;11.696;2023-04-25T10:49:00;3.17;;;1.90;;
17967;SDS011;9109;48.050;11.696;2023-04-25T10:52:14;2.93;;;1.30;;
17967;SDS011;9109;48.050;11.696;2023-04-25T10:55:20;3.87;;;1.70;;
17967;SDS011;9109;48.050;11.696;2023-04-25T10:58:22;3.93;;;1.63;;
17967;SDS011;9109;48.050;11.696;2023-04-25T11:01:25;5.13;;;1.50;;
17967;SDS011;9109;48.050;11.696;2023-04-25T11:04:31;3.13;;;1.50;;
17967;SDS011;9109;48.050;11.696;2023-04-25T11:07:44;6.80;;;1.43;;
17967;SDS011;9109;48.050;11.696;2023-04-25T11:10:52;2.37;;;1.20;;
17967;SDS011;9109;48.050;11.696;2023-04-25T11:13:54;3.40;;;1.40;;
17967;SDS011;9109;48.050;11.696;2023-04-25T11:17:03;6.93;;;1.53;;
17967;SDS011;9109;48.050;11.696;2023-04-25T11:20:08;1.67;;;1.30;;
17967;SDS011;9109;48.050;11.696;2023-04-25T11:23:16;2.20;;;1.50;;
17967;SDS011;9109;48.050;11.696;2023-04-25T11:26:21;7.40;;;1.80;;
17967;SDS011;9109;48.050;11.696;2023-04-25T11:29:28;5.00;;;1.60;;
17967;SDS011;9109;48.050;11.696;2023-04-25T11:32:35;3.00;;;1.80;;
17967;SDS011;9109;48.050;11.696;2023-04-25T11:35:37;7.30;;;1.80;;
17967;SDS011;9109;48.050;11.696;2023-04-25T11:38:44;3.87;;;1.80;;
17967;SDS011;9109;48.050;11.696;2023-04-25T11:41:48;2.93;;;1.67;;
17967;SDS011;9109;48.050;11.696;2023-04-25T11:44:51;3.97;;;1.50;;
17967;SDS011;9109;48.050;11.696;2023-04-25T11:47:54;4.30;;;1.50;;
17967;SDS011;9109;48.050;11.696;2023-04-25T11:51:03;2.73;;;1.50;;
17967;SDS011;9109;48.050;11.696;2023-04-25T11:54:08;5.13;;;1.70;;
17967;SDS011;9109;48.050;11.696;2023-04-25T11:57:11;5.17;;;1.80;;
17967;SDS011;9109;48.050;11.696;2023-04-25T12:00:13;2.37;;;1.53;;
17967;SDS011;9109;48.050;11.696;2023-04-25T12:07:46;3.60;;;1.37;;
17967;SDS011;9109;48.050;11.696;2023-04-25T12:10:49;4.60;;;1.40;;
17967;SDS011;9109;48.050;11.696;2023-04-25T12:14:03;5.57;;;1.40;;
17967;SDS011;9109;48.050;11.696;2023-04-25T12:17:12;2.37;;;1.37;;
17967;SDS011;9109;48.050;11.696;2023-04-25T12:20:15;3.03;;;1.70;;
17967;SDS011;9109;48.050;11.696;2023-04-25T12:23:26;3.50;;;2.20;;
17967;SDS011;9109;48.050;11.696;2023-04-25T12:26:34;8.07;;;2.13;;
17967;SDS011;9109;48.050;11.696;2023-04-25T12:29:50;5.77;;;2.13;;
17967;SDS011;9109;48.050;11.696;2023-04-25T12:33:02;6.73;;;2.03;;
17967;SDS011;9109;48.050;11.696;2023-04-25T12:36:05;6.77;;;2.20;;
17967;SDS011;9109;48.050;11.696;2023-04-25T12:39:23;3.33;;;2.00;;
17967;SDS011;9109;48.050;11.696;2023-04-25T12:42:26;5.93;;;2.13;;
17967;SDS011;9109;48.050;11.696;2023-04-25T12:45:28;4.60;;;1.97;;
17967;SDS011;9109;48.050;11.696;2023-04-25T12:48:33;3.73;;;1.80;;
17967;SDS011;9109;48.050;11.696;2023-04-25T12:51:36;4.67;;;2.10;;
17967;SDS011;9109;48.050;11.696;2023-04-25T12:54:40;3.70;;;1.87;;
17967;SDS011;9109;48.050;11.696;2023-04-25T12:57:42;4.57;;;1.37;;
17967;SDS011;9109;48.050;11.696;2023-04-25T13:00:44;3.53;;;1.50;;
17967;SDS011;9109;48.050;11.696;2023-04-25T13:03:46;3.17;;;1.17;;
17967;SDS011;9109;48.050;11.696;2023-04-25T13:06:48;2.63;;;1.50;;
17967;SDS011;9109;48.050;11.696;2023-04-25T13:09:52;1.97;;;1.30;;
17967;SDS011;9109;48.050;11.696;2023-04-25T13:12:54;3.23;;;1.10;;
17967;SDS011;9109;48.050;11.696;2023-04-25T13:15:55;1.77;;;1.57;;
17967;SDS011;9109;48.050;11.696;2023-04-25T13:18:57;0.93;;;0.90;;
17967;SDS011;9109;48.050;11.696;2023-04-25T13:22:01;4.53;;;1.10;;
17967;SDS011;9109;48.050;11.696;2023-04-25T13:25:18;2.70;;;2.07;;
17967;SDS011;9109;48.050;11.696;2023-04-25T13:28:27;1.43;;;0.90;;
17967;SDS011;9109;48.050;11.696;2023-04-25T13:31:33;3.13;;;1.43;;
17967;SDS011;9109;48.050;11.696;2023-04-25T13:34:40;1.40;;;1.10;;
17967;SDS011;9109;48.050;11.696;2023-04-25T13:37:51;1.43;;;0.90;;
17967;SDS011;9109;48.050;11.696;2023-04-25T13:40:57;1.43;;;1.00;;
17967;SDS011;9109;48.050;11.696;2023-04-25T13:44:02;1.80;;;1.00;;
17967;SDS011;9109;48.050;11.696;2023-04-25T13:47:07;2.30;;;1.17;;
17967;SDS011;9109;48.050;11.696;2023-04-25T13:50:11;0.90;;;0.77;;
17967;SDS011;9109;48.050;11.696;2023-04-25T13:53:18;1.73;;;1.27;;
17967;SDS011;9109;48.050;11.696;2023-04-25T13:56:30;3.17;;;1.03;;
17967;SDS011;9109;48.050;11.696;2023-04-25T13:59:34;4.47;;;1.17;;
17967;SDS011;9109;48.050;11.696;2023-04-25T14:02:36;4.03;;;1.30;;
17967;SDS011;9109;48.050;11.696;2023-04-25T14:05:54;1.30;;;1.03;;
17967;SDS011;9109;48.050;11.696;2023-04-25T14:09:22;2.20;;;1.40;;
17967;SDS011;9109;48.050;11.696;2023-04-25T14:12:32;4.00;;;1.10;;
17967;SDS011;9109;48.050;11.696;2023-04-25T14:19:22;1.50;;;1.10;;
17967;SDS011;9109;48.050;11.696;2023-04-25T14:22:28;1.00;;;0.90;;
17967;SDS011;9109;48.050;11.696;2023-04-25T14:25:54;1.90;;;1.27;;
17967;SDS011;9109;48.050;11.696;2023-04-25T14:29:07;1.33;;;1.00;;
17967;SDS011;9109;48.050;11.696;2023-04-25T14:32:35;4.23;;;2.60;;
17967;SDS011;9109;48.050;11.696;2023-04-25T14:35:46;1.43;;;1.17;;
17967;SDS011;9109;48.050;11.696;2023-04-25T14:39:04;3.47;;;1.20;;
17967;SDS011;9109;48.050;11.696;2023-04-25T14:43:05;2.07;;;1.00;;
17967;SDS011;9109;48.050;11.696;2023-04-25T14:49:51;1.03;;;0.90;;
17967;SDS011;9109;48.050;11.696;2023-04-25T14:53:02;2.17;;;1.47;;
17967;SDS011;9109;48.050;11.696;2023-04-25T14:56:16;1.80;;;1.17;;
17967;SDS011;9109;48.050;11.696;2023-04-25T14:59:23;1.57;;;1.30;;
17967;SDS011;9109;48.050;11.696;2023-04-25T15:02:29;2.33;;;1.40;;
17967;SDS011;9109;48.050;11.696;2023-04-25T15:05:31;1.87;;;1.10;;
17967;SDS011;9109;48.050;11.696;2023-04-25T15:08:33;2.90;;;1.43;;
17967;SDS011;9109;48.050;11.696;2023-04-25T15:11:36;2.23;;;1.60;;
17967;SDS011;9109;48.050;11.696;2023-04-25T15:14:37;2.17;;;1.40;;
17967;SDS011;9109;48.050;11.696;2023-04-25T15:17:41;3.77;;;1.87;;
17967;SDS011;9109;48.050;11.696;2023-04-25T15:20:43;5.80;;;2.37;;
17967;SDS011;9109;48.050;11.696;2023-04-25T15:23:45;2.90;;;2.60;;
17967;SDS011;9109;48.050;11.696;2023-04-25T15:26:50;3.03;;;2.00;;
17967;SDS011;9109;48.050;11.696;2023-04-25T15:29:54;3.90;;;1.13;;
17967;SDS011;9109;48.050;11.696;2023-04-25T15:33:00;1.13;;;1.00;;
17967;SDS011;9109;48.050;11.696;2023-04-25T15:36:03;0.60;;;0.60;;
17967;SDS011;9109;48.050;11.696;2023-04-25T15:39:26;0.93;;;0.73;;
17967;SDS011;9109;48.050;11.696;2023-04-25T15:42:28;1.07;;;0.90;;
17967;SDS011;9109;48.050;11.696;2023-04-25T15:45:30;3.40;;;1.00;;
17967;SDS011;9109;48.050;11.696;2023-04-25T15:51:57;1.43;;;1.00;;
17967;SDS011;9109;48.050;11.696;2023-04-25T15:55:10;1.70;;;0.80;;
17967;SDS011;9109;48.050;11.696;2023-04-25T15:58:32;1.33;;;0.93;;
17967;SDS011;9109;48.050;11.696;2023-04-25T16:05:31;1.53;;;0.90;;
17967;SDS011;9109;48.050;11.696;2023-04-25T16:08:45;1.50;;;1.00;;
17967;SDS011;9109;48.050;11.696;2023-04-25T16:11:46;1.23;;;1.00;;
17967;SDS011;9109;48.050;11.696;2023-04-25T16:14:48;2.67;;;1.83;;
17967;SDS011;9109;48.050;11.696;2023-04-25T16:17:50;1.77;;;1.10;;
17967;SDS011;9109;48.050;11.696;2023-04-25T16:20:53;2.83;;;1.23;;
17967;SDS011;9109;48.050;11.696;2023-04-25T16:23:55;3.97;;;1.10;;
17967;SDS011;9109;48.050;11.696;2023-04-25T16:26:57;1.10;;;1.00;;
17967;SDS011;9109;48.050;11.696;2023-04-25T16:29:59;2.00;;;1.33;;
17967;SDS011;9109;48.050;11.696;2023-04-25T16:33:01;1.33;;;1.23;;
17967;SDS011;9109;48.050;11.696;2023-04-25T16:36:05;1.30;;;1.17;;
17967;SDS011;9109;48.050;11.696;2023-04-25T16:39:07;2.30;;;1.40;;
17967;SDS011;9109;48.050;11.696;2023-04-25T16:42:09;2.13;;;1.20;;
17967;SDS011;9109;48.050;11.696;2023-04-25T16:45:11;2.53;;;2.00;;
17967;SDS011;9109;48.050;11.696;2023-04-25T16:48:15;2.13;;;1.57;;
17967;SDS011;9109;48.050;11.696;2023-04-25T16:51:21;1.50;;;1.40;;
17967;SDS011;9109;48.050;11.696;2023-04-25T16:54:23;1.43;;;1.17;;
17967;SDS011;9109;48.050;11.696;2023-04-25T16:57:25;1.63;;;1.37;;
17967;SDS011;9109;48.050;11.696;2023-04-25T17:00:27;1.27;;;1.10;;
17967;SDS011;9109;48.050;11.696;2023-04-25T17:03:29;3.83;;;1.30;;
17967;SDS011;9109;48.050;11.696;2023-04-25T17:06:32;1.53;;;1.27;;
17967;SDS011;9109;48.050;11.696;2023-04-25T17:09:35;3.03;;;1.73;;
17967;SDS011;9109;48.050;11.696;2023-04-25T17:12:37;1.90;;;1.60;;
17967;SDS011;9109;48.050;11.696;2023-04-25T17:15:39;4.17;;;1.73;;
17967;SDS011;9109;48.050;11.696;2023-04-25T17:18:41;5.67;;;2.57;;
17967;SDS011;9109;48.050;11.696;2023-04-25T17:21:45;3.50;;;1.90;;
17967;SDS011;9109;48.050;11.696;2023-04-25T17:24:47;5.57;;;2.23;;
17967;SDS011;9109;48.050;11.696;2023-04-25T17:27:49;4.57;;;2.20;;
17967;SDS011;9109;48.050;11.696;2023-04-25T17:30:51;4.20;;;2.17;;
17967;SDS011;9109;48.050;11.696;2023-04-25T17:33:53;3.30;;;1.77;;
17967;SDS011;9109;48.050;11.696;2023-04-25T17:36:58;2.60;;;1.87;;
17967;SDS011;9109;48.050;11.696;2023-04-25T17:39:59;1.93;;;1.40;;
17967;SDS011;9109;48.050;11.696;2023-04-25T17:43:03;2.93;;;1.70;;
17967;SDS011;9109;48.050;11.696;2023-04-25T17:46:06;2.10;;;1.60;;
17967;SDS011;9109;48.050;11.696;2023-04-25T17:49:08;2.20;;;1.73;;
17967;SDS011;9109;48.050;11.696;2023-04-25T17:52:12;2.20;;;1.70;;
17967;SDS011;9109;48.050;11.696;2023-04-25T17:55:13;3.90;;;1.80;;
17967;SDS011;9109;48.050;11.696;2023-04-25T17:58:15;3.17;;;1.73;;
17967;SDS011;9109;48.050;11.696;2023-04-25T18:01:17;3.67;;;1.80;;
17967;SDS011;9109;48.050;11.696;2023-04-25T18:04:19;3.70;;;1.90;;
17967;SDS011;9109;48.050;11.696;2023-04-25T18:07:22;2.90;;;1.97;;
17967;SDS011;9109;48.050;11.696;2023-04-25T18:10:27;2.77;;;1.57;;
17967;SDS011;9109;48.050;11.696;2023-04-25T18:13:29;3.33;;;1.90;;
17967;SDS011;9109;48.050;11.696;2023-04-25T18:16:31;4.73;;;2.00;;
17967;SDS011;9109;48.050;11.696;2023-04-25T18:19:33;4.93;;;2.17;;
17967;SDS011;9109;48.050;11.696;2023-04-25T18:22:36;8.07;;;2.30;;
17967;SDS011;9109;48.050;11.696;2023-04-25T18:25:38;3.77;;;2.20;;
17967;SDS011;9109;48.050;11.696;2023-04-25T18:28:40;4.77;;;2.10;;
17967;SDS011;9109;48.050;11.696;2023-04-25T18:31:43;3.87;;;2.67;;
17967;SDS011;9109;48.050;11.696;2023-04-25T18:34:45;4.07;;;2.07;;
17967;SDS011;9109;48.050;11.696;2023-04-25T18:37:50;2.67;;;1.90;;
17967;SDS011;9109;48.050;11.696;2023-04-25T18:40:52;5.40;;;2.00;;
17967;SDS011;9109;48.050;11.696;2023-04-25T18:43:54;2.93;;;2.10;;
17967;SDS011;9109;48.050;11.696;2023-04-25T18:47:00;3.20;;;2.13;;
17967;SDS011;9109;48.050;11.696;2023-04-25T18:50:02;3.03;;;1.70;;
17967;SDS011;9109;48.050;11.696;2023-04-25T18:53:07;3.03;;;1.60;;
17967;SDS011;9109;48.050;11.696;2023-04-25T18:56:09;1.97;;;1.40;;
17967;SDS011;9109;48.050;11.696;2023-04-25T18:59:11;1.83;;;1.10;;
17967;SDS011;9109;48.050;11.696;2023-04-25T19:02:14;1.93;;;1.20;;
17967;SDS011;9109;48.050;11.696;2023-04-25T19:05:16;2.17;;;1.40;;
17967;SDS011;9109;48.050;11.696;2023-04-25T19:08:20;4.87;;;1.70;;
17967;SDS011;9109;48.050;11.696;2023-04-25T19:11:22;1.83;;;1.53;;
17967;SDS011;9109;48.050;11.696;2023-04-25T19:14:24;3.00;;;1.70;;
17967;SDS011;9109;48.050;11.696;2023-04-25T19:17:27;3.03;;;1.77;;
17967;SDS011;9109;48.050;11.696;2023-04-25T19:20:29;4.00;;;2.00;;
17967;SDS011;9109;48.050;11.696;2023-04-25T19:23:35;4.30;;;2.30;;
17967;SDS011;9109;48.050;11.696;2023-04-25T19:26:38;3.97;;;1.97;;
17967;SDS011;9109;48.050;11.696;2023-04-25T19:29:40;6.10;;;2.03;;
17967;SDS011;9109;48.050;11.696;2023-04-25T19:32:47;3.63;;;2.10;;
17967;SDS011;9109;48.050;11.696;2023-04-25T19:35:49;4.63;;;1.90;;
17967;SDS011;9109;48.050;11.696;2023-04-25T19:38:52;4.60;;;2.13;;
17967;SDS011;9109;48.050;11.696;2023-04-25T19:42:01;3.07;;;2.03;;
17967;SDS011;9109;48.050;11.696;2023-04-25T19:45:03;5.03;;;2.20;;
17967;SDS011;9109;48.050;11.696;2023-04-25T19:48:06;3.13;;;2.17;;
17967;SDS011;9109;48.050;11.696;2023-04-25T19:51:09;3.93;;;2.10;;
17967;SDS011;9109;48.050;11.696;2023-04-25T19:54:12;3.30;;;2.00;;
17967;SDS011;9109;48.050;11.696;2023-04-25T19:57:16;4.27;;;2.17;;
17967;SDS011;9109;48.050;11.696;2023-04-25T20:00:18;3.70;;;2.07;;
17967;SDS011;9109;48.050;11.696;2023-04-25T20:03:21;4.80;;;1.90;;
17967;SDS011;9109;48.050;11.696;2023-04-25T20:06:23;3.00;;;1.97;;
17967;SDS011;9109;48.050;11.696;2023-04-25T20:09:27;2.87;;;2.10;;
17967;SDS011;9109;48.050;11.696;2023-04-25T20:12:29;4.53;;;2.43;;
17967;SDS011;9109;48.050;11.696;2023-04-25T20:15:31;4.87;;;2.40;;
17967;SDS011;9109;48.050;11.696;2023-04-25T20:18:34;4.87;;;2.50;;
17967;SDS011;9109;48.050;11.696;2023-04-25T20:21:43;3.23;;;1.90;;
17967;SDS011;9109;48.050;11.696;2023-04-25T20:25:43;3.40;;;2.17;;
17967;SDS011;9109;48.050;11.696;2023-04-25T20:28:45;3.23;;;2.30;;
17967;SDS011;9109;48.050;11.696;2023-04-25T20:31:47;4.20;;;2.37;;
17967;SDS011;9109;48.050;11.696;2023-04-25T20:34:50;3.40;;;1.97;;
17967;SDS011;9109;48.050;11.696;2023-04-25T20:37:51;2.63;;;1.77;;
17967;SDS011;9109;48.050;11.696;2023-04-25T20:40:55;6.03;;;2.33;;
17967;SDS011;9109;48.050;11.696;2023-04-25T20:43:57;4.50;;;2.37;;
17967;SDS011;9109;48.050;11.696;2023-04-25T20:47:00;8.37;;;2.80;;
17967;SDS011;9109;48.050;11.696;2023-04-25T20:50:03;3.90;;;2.37;;
17967;SDS011;9109;48.050;11.696;2023-04-25T20:53:06;3.87;;;2.47;;
17967;SDS011;9109;48.050;11.696;2023-04-25T20:59:51;3.07;;;2.13;;
17967;SDS011;9109;48.050;11.696;2023-04-25T21:02:53;3.77;;;2.33;;
17967;SDS011;9109;48.050;11.696;2023-04-25T21:05:55;5.20;;;2.40;;
17967;SDS011;9109;48.050;11.696;2023-04-25T21:08:57;6.03;;;2.53;;
17967;SDS011;9109;48.050;11.696;2023-04-25T21:12:00;4.47;;;2.73;;
17967;SDS011;9109;48.050;11.696;2023-04-25T21:15:03;5.77;;;2.20;;
17967;SDS011;9109;48.050;11.696;2023-04-25T21:18:05;3.93;;;2.70;;
17967;SDS011;9109;48.050;11.696;2023-04-25T21:21:07;4.03;;;2.57;;
17967;SDS011;9109;48.050;11.696;2023-04-25T21:24:12;4.83;;;2.30;;
17967;SDS011;9109;48.050;11.696;2023-04-25T21:27:15;3.90;;;2.37;;
17967;SDS011;9109;48.050;11.696;2023-04-25T21:30:18;3.40;;;2.13;;
17967;SDS011;9109;48.050;11.696;2023-04-25T21:33:21;3.40;;;2.37;;
17967;SDS011;9109;48.050;11.696;2023-04-25T21:36:23;4.83;;;2.40;;
17967;SDS011;9109;48.050;11.696;2023-04-25T21:39:26;5.47;;;2.27;;
17967;SDS011;9109;48.050;11.696;2023-04-25T21:42:30;4.63;;;2.60;;
17967;SDS011;9109;48.050;11.696;2023-04-25T21:45:32;4.43;;;2.30;;
17967;SDS011;9109;48.050;11.696;2023-04-25T21:48:34;3.73;;;2.37;;
17967;SDS011;9109;48.050;11.696;2023-04-25T21:51:37;6.23;;;2.70;;
17967;SDS011;9109;48.050;11.696;2023-04-25T21:54:39;4.67;;;2.20;;
17967;SDS011;9109;48.050;11.696;2023-04-25T21:57:42;3.00;;;2.23;;
17967;SDS011;9109;48.050;11.696;2023-04-25T22:00:45;6.87;;;2.60;;
17967;SDS011;9109;48.050;11.696;2023-04-25T22:03:47;3.97;;;2.43;;
17967;SDS011;9109;48.050;11.696;2023-04-25T22:06:49;6.33;;;2.50;;
17967;SDS011;9109;48.050;11.696;2023-04-25T22:09:51;2.90;;;2.13;;
17967;SDS011;9109;48.050;11.696;2023-04-25T22:12:55;5.70;;;2.63;;
17967;SDS011;9109;48.050;11.696;2023-04-25T22:15:57;7.40;;;2.50;;
17967;SDS011;9109;48.050;11.696;2023-04-25T22:19:00;5.20;;;2.20;;
17967;SDS011;9109;48.050;11.696;2023-04-25T22:22:03;4.77;;;2.40;;
17967;SDS011;9109;48.050;11.696;2023-04-25T22:25:06;2.03;;;1.70;;
17967;SDS011;9109;48.050;11.696;2023-04-25T22:28:10;5.40;;;2.23;;
17967;SDS011;9109;48.050;11.696;2023-04-25T22:31:12;4.07;;;2.10;;
17967;SDS011;9109;48.050;11.696;2023-04-25T22:34:14;5.33;;;1.80;;
17967;SDS011;9109;48.050;11.696;2023-04-25T22:37:16;4.53;;;2.20;;
17967;SDS011;9109;48.050;11.696;2023-04-25T22:40:18;3.33;;;1.97;;
17967;SDS011;9109;48.050;11.696;2023-04-25T22:43:21;2.20;;;1.70;;
17967;SDS011;9109;48.050;11.696;2023-04-25T22:46:25;2.00;;;1.80;;